Time;durP1;ratioP1;P1;durP2;ratioP2;P2;SDS_P1;SDS_P2;PMS_P1;PMS_P2;Temp;Humidity;BMP_temperature;BMP_pressure;BME280_temperature;BME280_humidity;BME280_pressure;Samples;Min_cycle;Max_cycle;Signal;HPM_P1;HPM_P2
2022/07/06 00:00:34;;;;;;;7.00;5.78;;;;;;;17.19;78.42;100659.51;3651054;77;21460;-81
2022/07/06 00:05:26;;;;;;;5.97;5.58;;;;;;;17.17;78.66;100659.08;3676660;75;22000;-82
2022/07/06 00:10:17;;;;;;;6.17;5.58;;;;;;;17.12;78.65;100653.44;3620359;75;21516;-81
2022/07/06 00:15:09;;;;;;;6.22;5.72;;;;;;;17.14;78.75;100660.00;3645225;75;21976;-81
2022/07/06 00:20:01;;;;;;;6.28;5.70;;;;;;;17.05;78.85;100650.45;3611181;76;20999;-82
2022/07/06 00:24:52;;;;;;;6.53;5.87;;;;;;;17.08;79.02;100654.79;3595884;76;21948;-82
2022/07/06 00:29:44;;;;;;;6.40;5.90;;;;;;;17.06;78.98;100650.00;3605804;75;21488;-82
2022/07/06 00:34:36;;;;;;;5.92;5.33;;;;;;;17.06;79.48;100652.21;3613435;76;20986;-82
2022/07/06 00:39:29;;;;;;;5.72;5.05;;;;;;;17.04;79.18;100650.47;3634778;75;20927;-82
2022/07/06 00:44:20;;;;;;;5.80;5.37;;;;;;;17.04;79.21;100646.53;3654933;75;22162;-81
2022/07/06 00:50:13;;;;;;;5.65;5.25;;;;;;;17.03;79.32;100645.67;3650036;76;20923;-81
2022/07/06 00:54:05;;;;;;;5.12;4.75;;;;;;;16.96;79.21;100638.29;3638279;77;21483;-81
2022/07/06 00:58:58;;;;;;;5.47;5.05;;;;;;;16.96;79.39;100626.92;3693174;76;20994;-81
2022/07/06 01:03:49;;;;;;;5.50;5.10;;;;;;;16.94;79.32;100622.99;3677650;76;20945;-81
2022/07/06 01:08:41;;;;;;;6.20;5.60;;;;;;;16.93;79.45;100628.26;3688603;75;21125;-81
2022/07/06 01:13:33;;;;;;;5.97;5.47;;;;;;;16.92;79.42;100625.22;3675355;76;20997;-82
2022/07/06 01:18:25;;;;;;;5.50;5.10;;;;;;;16.89;79.45;100625.25;3639840;76;20980;-81
2022/07/06 01:23:17;;;;;;;5.20;4.83;;;;;;;16.88;79.57;100622.18;3667414;76;20980;-81
2022/07/06 01:28:08;;;;;;;6.30;5.35;;;;;;;16.87;79.49;100617.83;3569314;76;21010;-82
2022/07/06 01:32:59;;;;;;;5.60;5.10;;;;;;;16.85;79.72;100620.92;3671659;76;21215;-81
2022/07/06 01:37:50;;;;;;;5.58;5.08;;;;;;;16.83;79.66;100622.25;3636195;76;20968;-81
2022/07/06 01:42:41;;;;;;;6.08;5.47;;;;;;;16.81;79.72;100623.09;3636947;77;20922;-81
2022/07/06 01:47:33;;;;;;;5.22;4.78;;;;;;;16.78;79.77;100619.63;3650438;77;21389;-81
2022/07/06 01:52:24;;;;;;;5.65;5.15;;;;;;;16.76;79.72;100620.09;3628822;76;20924;-81
2022/07/06 01:57:15;;;;;;;7.45;5.58;;;;;;;16.75;79.87;100617.47;3589549;77;21490;-81
2022/07/06 02:02:07;;;;;;;5.95;5.45;;;;;;;16.72;79.85;100621.02;3568389;77;20912;-81
2022/07/06 02:06:58;;;;;;;5.33;4.72;;;;;;;16.72;80.00;100624.95;3516209;77;21416;-81
2022/07/06 02:11:50;;;;;;;5.97;4.62;;;;;;;16.71;80.04;100617.95;3619171;76;21756;-81
2022/07/06 02:16:42;;;;;;;5.55;5.15;;;;;;;16.71;80.05;100614.45;3669062;76;20974;-81
2022/07/06 02:21:33;;;;;;;5.55;5.15;;;;;;;16.70;80.02;100618.81;3660549;76;21153;-81
2022/07/06 02:26:24;;;;;;;5.80;5.25;;;;;;;16.67;79.98;100619.29;3625331;76;20934;-81
2022/07/06 02:31:16;;;;;;;4.95;4.53;;;;;;;16.67;80.07;100618.88;3655949;76;20930;-81
2022/07/06 02:36:09;;;;;;;5.95;5.45;;;;;;;16.66;80.04;100611.87;3690920;76;20977;-81
2022/07/06 02:41:00;;;;;;;6.30;5.28;;;;;;;16.64;79.93;100612.78;3635195;75;20929;-81
2022/07/06 02:45:53;;;;;;;5.85;4.92;;;;;;;16.62;80.06;100609.30;3603308;76;22805;-81
2022/07/06 02:50:45;;;;;;;5.17;4.78;;;;;;;16.61;80.08;100616.28;3622364;75;20927;-81
2022/07/06 02:55:36;;;;;;;4.80;4.22;;;;;;;16.60;80.04;100609.31;3679585;75;20995;-81
2022/07/06 03:00:28;;;;;;;6.47;5.28;;;;;;;16.60;80.07;100614.56;3625469;76;20888;-81
2022/07/06 03:05:19;;;;;;;4.97;4.40;;;;;;;16.60;80.06;100611.94;3654533;76;21439;-81
2022/07/06 03:10:10;;;;;;;5.85;5.37;;;;;;;16.58;80.15;100613.72;3648729;76;21955;-81
2022/07/06 03:15:02;;;;;;;5.35;4.83;;;;;;;16.58;80.18;100608.47;3629861;76;21054;-81
2022/07/06 03:19:55;;;;;;;4.10;3.80;;;;;;;16.59;80.21;100610.19;3665578;76;20914;-81
2022/07/06 03:24:47;;;;;;;4.30;3.95;;;;;;;16.55;80.10;100600.16;3655839;76;20980;-81
2022/07/06 03:29:38;;;;;;;5.47;4.35;;;;;;;16.53;80.24;100603.25;3657665;76;20995;-81
2022/07/06 03:34:30;;;;;;;6.12;4.10;;;;;;;16.52;80.16;100592.76;3685851;76;21272;-81
2022/07/06 03:39:21;;;;;;;3.62;3.33;;;;;;;16.48;79.98;100597.61;3668933;76;20962;-81
2022/07/06 03:44:14;;;;;;;4.42;4.12;;;;;;;16.44;80.02;100591.98;3652355;77;21975;-81
2022/07/06 03:49:06;;;;;;;4.65;4.25;;;;;;;16.45;80.13;100583.20;3598624;76;21375;-81
2022/07/06 03:53:57;;;;;;;5.12;3.72;;;;;;;16.44;80.25;100575.78;3671541;76;20939;-81
2022/07/06 03:58:49;;;;;;;3.65;3.42;;;;;;;16.45;80.20;100582.75;3629197;76;21254;-81
2022/07/06 04:03:40;;;;;;;4.45;3.80;;;;;;;16.47;80.07;100584.05;3643642;76;20977;-81
2022/07/06 04:08:32;;;;;;;3.70;3.40;;;;;;;16.48;80.13;100575.31;3661279;76;20953;-81
2022/07/06 04:13:25;;;;;;;5.33;4.83;;;;;;;16.48;80.06;100559.56;3655963;75;21428;-81
2022/07/06 04:18:17;;;;;;;5.45;3.90;;;;;;;16.46;80.04;100549.08;3639911;76;22292;-81
2022/07/06 04:23:10;;;;;;;4.45;3.42;;;;;;;16.48;80.06;100538.58;3669607;76;21457;-81
2022/07/06 04:28:01;;;;;;;4.35;3.33;;;;;;;16.46;79.98;100540.34;3695128;75;21007;-81
2022/07/06 04:32:55;;;;;;;3.72;3.30;;;;;;;16.46;79.78;100548.22;3650015;76;20906;-81
2022/07/06 04:37:48;;;;;;;3.60;3.30;;;;;;;16.50;79.85;100548.61;3622217;77;21432;-81
2022/07/06 04:42:41;;;;;;;3.35;3.02;;;;;;;16.55;79.55;100541.56;3624426;76;21386;-81
2022/07/06 04:47:33;;;;;;;5.12;3.10;;;;;;;16.64;79.42;100549.33;3632558;76;22007;-81
2022/07/06 04:52:25;;;;;;;3.42;3.00;;;;;;;16.74;79.31;100552.71;3657420;76;20953;-81
2022/07/06 04:57:16;;;;;;;2.92;2.72;;;;;;;16.81;79.15;100553.06;3635003;76;21048;-81
2022/07/06 05:02:08;;;;;;;3.30;3.10;;;;;;;16.83;79.08;100556.99;3636970;76;20933;-81
2022/07/06 05:07:03;;;;;;;3.80;3.50;;;;;;;16.82;78.89;100563.15;3597106;76;20971;-81
2022/07/06 05:11:55;;;;;;;3.80;3.50;;;;;;;16.88;79.03;100569.66;3557046;78;21527;-81
2022/07/06 05:16:49;;;;;;;3.65;3.40;;;;;;;16.86;79.30;100570.99;3511210;79;20980;-81
2022/07/06 05:21:41;;;;;;;4.60;3.50;;;;;;;16.87;79.50;100578.45;3527563;79;20901;-81
2022/07/06 05:26:33;;;;;;;3.98;3.60;;;;;;;16.82;79.33;100571.89;3575975;78;20950;-81
2022/07/06 05:31:24;;;;;;;3.80;3.50;;;;;;;16.89;79.31;100574.91;3547583;78;20937;-81
2022/07/06 05:36:16;;;;;;;4.67;4.28;;;;;;;16.93;79.41;100578.36;3574748;78;21108;-81
2022/07/06 05:41:07;;;;;;;4.90;4.03;;;;;;;16.91;79.41;100584.08;3593021;78;21525;-80
2022/07/06 05:45:59;;;;;;;3.40;3.10;;;;;;;16.83;79.34;100591.12;3526805;79;21010;-80
2022/07/06 05:50:52;;;;;;;3.67;3.15;;;;;;;16.80;79.36;100592.05;3564780;79;21413;-80
2022/07/06 05:55:44;;;;;;;3.25;3.05;;;;;;;16.86;79.28;100588.05;3519549;78;20926;-77
2022/07/06 06:00:36;;;;;;;3.83;3.30;;;;;;;16.94;79.19;100594.11;3512796;78;21297;-77
2022/07/06 06:05:29;;;;;;;5.60;3.58;;;;;;;17.04;79.02;100602.73;3482553;80;20964;-77
2022/07/06 06:10:23;;;;;;;2.85;2.62;;;;;;;17.13;78.95;100605.28;3600932;77;20951;-75
2022/07/06 06:15:17;;;;;;;3.02;2.83;;;;;;;17.10;78.43;100605.77;3510410;78;20928;-74
2022/07/06 06:20:12;;;;;;;3.33;2.95;;;;;;;17.11;78.52;100605.72;3559522;77;21426;-74
2022/07/06 06:25:04;;;;;;;2.27;2.08;;;;;;;17.17;78.67;100606.12;3570665;78;21316;-74
2022/07/06 06:29:55;;;;;;;2.95;2.75;;;;;;;17.22;78.08;100607.36;3518225;78;21014;-74
2022/07/06 06:34:46;;;;;;;2.65;2.40;;;;;;;17.24;77.74;100607.78;3541516;77;20947;-74
2022/07/06 06:39:37;;;;;;;3.83;1.92;;;;;;;17.26;77.87;100606.42;3561409;78;20995;-75
2022/07/06 06:44:28;;;;;;;2.55;2.35;;;;;;;17.33;77.95;100613.34;3509380;79;20900;-79
2022/07/06 06:49:20;;;;;;;2.83;2.62;;;;;;;17.33;77.68;100610.28;3560235;76;20992;-79
2022/07/06 06:54:11;;;;;;;3.25;2.40;;;;;;;17.38;77.69;100615.47;3634026;76;20944;-79
2022/07/06 06:59:02;;;;;;;3.25;3.00;;;;;;;17.56;78.19;100616.13;3679708;75;21444;-78
2022/07/06 07:03:55;;;;;;;3.08;2.83;;;;;;;17.48;78.01;100611.84;3675060;75;37497;-78
2022/07/06 07:08:46;;;;;;;3.37;2.85;;;;;;;17.57;78.36;100616.56;3655007;75;21243;-78
2022/07/06 07:13:38;;;;;;;3.60;3.30;;;;;;;17.73;78.30;100611.51;3652696;75;21847;-78
2022/07/06 07:18:29;;;;;;;3.75;2.90;;;;;;;17.91;77.85;100624.41;3677366;76;20922;-79
2022/07/06 07:23:20;;;;;;;3.70;2.98;;;;;;;18.02;77.39;100624.70;3631765;75;20969;-80
2022/07/06 07:28:11;;;;;;;2.60;2.40;;;;;;;18.27;77.19;100623.42;3641742;76;20967;-80
2022/07/06 07:33:03;;;;;;;2.40;2.20;;;;;;;18.94;75.97;100612.64;3650525;76;21443;-82
2022/07/06 07:37:54;;;;;;;3.60;2.92;;;;;;;21.82;70.25;100611.19;3650023;76;21038;-81
2022/07/06 07:42:45;;;;;;;3.85;3.55;;;;;;;26.17;62.99;100608.86;3632091;75;21304;-82
2022/07/06 07:47:36;;;;;;;4.12;3.50;;;;;;;28.52;59.46;100603.19;3673856;75;21575;-80
2022/07/06 07:52:28;;;;;;;4.45;3.90;;;;;;;28.13;58.30;100608.64;3626646;77;20879;-77
2022/07/06 07:57:19;;;;;;;4.62;3.50;;;;;;;26.89;59.94;100624.32;3616858;77;21421;-78
2022/07/06 08:02:10;;;;;;;4.28;3.10;;;;;;;27.29;57.04;100623.54;3654899;77;21261;-78
2022/07/06 08:07:02;;;;;;;5.55;3.55;;;;;;;28.50;56.75;100622.48;3590594;77;21023;-78
2022/07/06 08:11:53;;;;;;;3.65;3.35;;;;;;;27.63;55.53;100623.49;3570092;77;20977;-78
2022/07/06 08:16:44;;;;;;;4.65;4.20;;;;;;;26.78;56.40;100620.89;3612928;77;21426;-78
2022/07/06 08:21:36;;;;;;;4.53;3.45;;;;;;;26.49;56.79;100629.48;3596915;77;20990;-78
2022/07/06 08:26:28;;;;;;;4.15;3.75;;;;;;;26.18;56.82;100629.22;3609928;77;20962;-77
2022/07/06 08:31:20;;;;;;;5.20;3.52;;;;;;;24.55;58.57;100635.32;3639878;77;20976;-76
2022/07/06 08:36:11;;;;;;;3.12;2.83;;;;;;;27.05;55.46;100626.19;3612008;77;20930;-79
2022/07/06 08:41:05;;;;;;;3.85;2.20;;;;;;;29.90;50.92;100626.36;3654846;77;21416;-78
2022/07/06 08:45:56;;;;;;;3.47;1.60;;;;;;;30.30;50.24;100621.50;3583454;77;21045;-77
2022/07/06 08:50:49;;;;;;;2.37;1.85;;;;;;;32.02;46.57;100619.28;3559720;76;21436;-82
2022/07/06 08:55:41;;;;;;;4.15;1.90;;;;;;;34.19;42.48;100611.62;3601599;76;20957;-80
2022/07/06 09:00:33;;;;;;;2.52;1.60;;;;;;;34.71;40.67;100620.67;3634798;76;20941;-78
2022/07/06 09:05:25;;;;;;;2.75;1.45;;;;;;;32.06;44.19;100627.02;3601282;76;21721;-77
2022/07/06 09:10:21;;;;;;;8.80;2.25;;;;;;;30.39;43.93;100629.84;3572774;76;22142;-77
2022/07/06 09:15:12;;;;;;;1.75;1.20;;;;;;;29.74;44.11;100628.30;3578723;76;22503;-76
2022/07/06 09:20:10;;;;;;;5.15;1.45;;;;;;;28.57;45.40;100631.53;3627206;76;20973;-77
2022/07/06 09:25:12;;;;;;;2.35;1.20;;;;;;;26.62;46.69;100623.48;3637105;76;21068;-76
2022/07/06 09:30:06;;;;;;;3.70;1.50;;;;;;;26.26;47.96;100628.86;3594341;76;20941;-79
2022/07/06 09:34:57;;;;;;;2.40;1.42;;;;;;;27.95;45.38;100613.69;3583885;77;20985;-78
2022/07/06 09:39:48;;;;;;;2.58;1.52;;;;;;;28.09;44.93;100613.75;3640880;77;21106;-85
2022/07/06 09:44:42;;;;;;;1.40;1.17;;;;;;;28.83;44.05;100621.45;3603794;76;20977;-78
2022/07/06 09:49:33;;;;;;;2.77;1.15;;;;;;;29.00;42.28;100622.22;3616135;76;20941;-79
2022/07/06 09:54:26;;;;;;;1.40;1.30;;;;;;;31.84;38.09;100612.95;3640660;75;20982;-77
2022/07/06 09:59:24;;;;;;;1.72;1.02;;;;;;;33.46;36.13;100613.97;3696013;75;21079;-78
2022/07/06 10:04:18;;;;;;;1.32;1.00;;;;;;;34.95;35.61;100608.74;3697512;75;21998;-77
2022/07/06 10:09:10;;;;;;;1.35;0.90;;;;;;;35.07;33.55;100603.58;3622493;75;20938;-78
2022/07/06 10:14:05;;;;;;;1.10;0.98;;;;;;;33.56;34.63;100613.59;3650981;76;20981;-79
2022/07/06 10:18:56;;;;;;;;;;;;;;;35.13;33.43;100600.86;3649371;75;20943;-78
2022/07/06 10:23:49;;;;;;;1.17;0.90;;;;;;;34.90;31.78;100598.84;3639340;77;20149;-78
2022/07/06 10:28:42;;;;;;;1.75;0.95;;;;;;;35.56;31.34;100607.84;3669859;75;21301;-78
2022/07/06 10:33:35;;;;;;;1.77;0.93;;;;;;;34.60;31.67;100608.58;3669237;77;20941;-78
2022/07/06 10:38:34;;;;;;;1.85;1.00;;;;;;;31.67;33.88;100614.68;3673769;75;21493;-78
2022/07/06 10:43:44;;;;;;;1.32;0.80;;;;;;;32.41;33.68;100614.55;3598120;76;21455;-78
2022/07/06 10:48:43;;;;;;;1.32;1.10;;;;;;;33.55;30.89;100615.06;3636492;77;20930;-79
2022/07/06 10:53:40;;;;;;;2.65;0.90;;;;;;;33.90;30.07;100616.23;3498060;79;21863;-78
2022/07/06 10:58:51;;;;;;;1.15;0.70;;;;;;;34.14;30.00;100611.96;3503535;79;21003;-79
2022/07/06 11:03:52;;;;;;;0.70;0.70;;;;;;;33.33;31.45;100616.81;3530977;79;20954;-78
2022/07/06 11:09:03;;;;;;;2.55;0.85;;;;;;;30.92;31.81;100615.53;3530192;78;20964;-74
2022/07/06 11:14:08;;;;;;;1.85;1.02;;;;;;;28.75;33.49;100626.87;3536364;79;20923;-78
2022/07/06 11:19:05;;;;;;;1.10;0.68;;;;;;;27.93;36.07;100623.13;3490384;78;21227;-76
2022/07/06 11:23:56;;;;;;;1.17;0.82;;;;;;;28.29;36.86;100607.23;3554027;77;21442;-77
2022/07/06 11:28:48;;;;;;;1.82;0.85;;;;;;;28.22;35.38;100607.20;3610198;77;20942;-76
2022/07/06 11:33:40;;;;;;;0.60;0.60;;;;;;;27.32;35.76;100610.52;3596217;77;20934;-78
2022/07/06 11:38:31;;;;;;;1.32;0.60;;;;;;;27.20;38.71;100605.33;3547595;77;20970;-76
2022/07/06 11:43:22;;;;;;;2.05;0.80;;;;;;;27.03;37.28;100602.25;3571471;77;21901;-76
2022/07/06 11:48:15;;;;;;;2.27;1.30;;;;;;;26.34;37.64;100605.81;3566980;77;20989;-76
2022/07/06 11:53:07;;;;;;;2.37;1.22;;;;;;;25.79;37.75;100618.23;3534968;76;21000;-76
2022/07/06 11:58:01;;;;;;;0.85;0.80;;;;;;;25.70;38.38;100618.65;3608200;77;20954;-77
2022/07/06 12:03:02;;;;;;;2.33;0.80;;;;;;;26.70;38.34;100603.55;3628042;76;21032;-75
2022/07/06 12:08:09;;;;;;;3.85;1.20;;;;;;;27.18;37.81;100604.55;3628705;77;21114;-77
2022/07/06 12:13:04;;;;;;;2.08;0.80;;;;;;;26.60;37.11;100606.67;3621730;76;20977;-77
2022/07/06 12:17:55;;;;;;;3.02;0.82;;;;;;;25.62;37.93;100626.16;3607421;76;20934;-76
2022/07/06 12:22:47;;;;;;;0.70;0.70;;;;;;;25.21;38.80;100619.59;3546890;76;21491;-78
2022/07/06 12:27:38;;;;;;;2.77;0.90;;;;;;;26.06;38.68;100620.53;3638703;76;20894;-78
2022/07/06 12:32:29;;;;;;;0.95;0.70;;;;;;;26.33;38.40;100602.77;3567324;76;21345;-76
2022/07/06 12:37:20;;;;;;;1.35;0.75;;;;;;;26.37;37.78;100601.19;3631043;76;20985;-77
2022/07/06 12:42:15;;;;;;;1.90;0.93;;;;;;;27.00;37.37;100604.59;3618659;77;20835;-77
2022/07/06 12:47:09;;;;;;;1.75;0.85;;;;;;;27.37;37.46;100613.31;3646687;77;21543;-78
2022/07/06 12:52:04;;;;;;;1.22;0.65;;;;;;;27.44;36.36;100610.33;3586930;76;20988;-78
2022/07/06 12:57:07;;;;;;;1.37;0.70;;;;;;;27.54;36.14;100608.39;3510515;79;22566;-76
2022/07/06 13:01:58;;;;;;;2.47;0.90;;;;;;;27.35;35.99;100607.20;3576930;77;21484;-76
2022/07/06 13:06:50;;;;;;;1.30;0.80;;;;;;;27.46;35.03;100612.44;3554755;77;20993;-76
2022/07/06 13:11:42;;;;;;;2.00;1.30;;;;;;;27.55;35.45;100614.59;3549743;78;20952;-76
2022/07/06 13:16:34;;;;;;;1.42;0.90;;;;;;;27.68;34.99;100608.93;3559240;78;21035;-76
2022/07/06 13:21:25;;;;;;;1.22;0.70;;;;;;;27.74;34.87;100605.94;3516161;78;21842;-76
2022/07/06 13:26:16;;;;;;;0.88;0.68;;;;;;;27.92;35.32;100607.20;3576480;78;20953;-77
2022/07/06 13:31:08;;;;;;;0.90;0.72;;;;;;;27.60;35.37;100605.85;3624414;77;21023;-75
2022/07/06 13:36:01;;;;;;;2.35;1.00;;;;;;;26.58;35.68;100603.23;3616622;76;21641;-77
2022/07/06 13:40:52;;;;;;;5.10;1.00;;;;;;;26.68;36.35;100606.30;3611435;76;20913;-77
2022/07/06 13:45:43;;;;;;;1.60;0.82;;;;;;;27.17;36.21;100608.19;3646345;76;21202;-78
2022/07/06 13:50:35;;;;;;;2.40;0.85;;;;;;;27.52;35.64;100610.74;3585627;77;20971;-78
2022/07/06 13:55:26;;;;;;;2.22;0.93;;;;;;;27.63;35.18;100608.33;3552353;77;21038;-82
2022/07/06 14:00:18;;;;;;;1.25;0.80;;;;;;;27.61;34.52;100612.05;3596638;77;20918;-81
2022/07/06 14:05:09;;;;;;;3.77;0.90;;;;;;;27.62;34.75;100605.28;3592384;77;20942;-79
2022/07/06 14:10:01;;;;;;;0.72;0.72;;;;;;;27.73;34.84;100601.53;3547260;77;22407;-77
2022/07/06 14:14:52;;;;;;;2.15;1.00;;;;;;;27.66;33.45;100605.48;3607661;77;21036;-78
2022/07/06 14:19:43;;;;;;;3.50;1.17;;;;;;;26.75;34.71;100599.70;3563874;77;20930;-77
2022/07/06 14:24:34;;;;;;;1.12;0.88;;;;;;;26.56;34.45;100601.12;3573832;77;20910;-78
2022/07/06 14:29:26;;;;;;;1.15;0.80;;;;;;;26.06;35.19;100600.55;3616612;77;20966;-77
2022/07/06 14:34:17;;;;;;;1.47;0.90;;;;;;;26.23;35.74;100598.36;3608321;77;21452;-77
2022/07/06 14:39:10;;;;;;;2.55;1.30;;;;;;;25.72;35.97;100610.14;3572139;77;20935;-77
2022/07/06 14:44:02;;;;;;;1.17;0.80;;;;;;;25.29;36.70;100610.84;3610966;77;20973;-78
2022/07/06 14:48:53;;;;;;;1.30;0.85;;;;;;;24.87;37.31;100607.81;3606615;77;20948;-77
2022/07/06 14:53:44;;;;;;;2.30;0.80;;;;;;;24.34;37.68;100603.84;3598069;76;20934;-77
2022/07/06 14:58:35;;;;;;;2.50;1.57;;;;;;;23.95;38.74;100602.78;3601190;76;21899;-76
2022/07/06 15:03:27;;;;;;;2.00;1.02;;;;;;;23.60;39.64;100596.19;3618453;76;20920;-76
2022/07/06 15:08:19;;;;;;;1.72;0.75;;;;;;;23.40;40.05;100591.19;3658808;76;20954;-76
2022/07/06 15:13:11;;;;;;;1.37;0.90;;;;;;;23.24;39.89;100593.17;3637031;76;20967;-76
2022/07/06 15:18:03;;;;;;;1.55;0.80;;;;;;;23.11;40.29;100584.34;3631948;76;20965;-77
2022/07/06 15:22:54;;;;;;;1.52;0.90;;;;;;;22.92;40.51;100589.88;3631519;76;20944;-77
2022/07/06 15:27:47;;;;;;;2.12;0.93;;;;;;;22.85;41.23;100594.53;3573530;76;21140;-76
2022/07/06 15:32:38;;;;;;;1.62;0.70;;;;;;;22.76;40.89;100593.55;3624202;76;21487;-76
2022/07/06 15:37:29;;;;;;;1.90;0.95;;;;;;;22.83;40.90;100595.91;3619281;76;20984;-76
2022/07/06 15:42:21;;;;;;;1.92;1.00;;;;;;;22.98;40.24;100586.99;3647212;76;20965;-75
2022/07/06 15:47:12;;;;;;;1.92;1.20;;;;;;;22.98;39.94;100590.97;3669938;76;21168;-76
2022/07/06 15:52:05;;;;;;;1.95;1.27;;;;;;;22.75;40.35;100596.66;3674458;75;21027;-77
2022/07/06 15:56:56;;;;;;;3.10;1.15;;;;;;;22.54;40.20;100602.72;3580460;77;20969;-78
2022/07/06 16:01:48;;;;;;;2.72;1.20;;;;;;;22.53;41.07;100607.59;3570805;76;21032;-80
2022/07/06 16:06:39;;;;;;;1.30;1.20;;;;;;;22.36;41.75;100620.95;3582465;76;20942;-76
2022/07/06 16:11:30;;;;;;;0.80;0.80;;;;;;;22.09;42.50;100631.50;3617581;76;21515;-76
2022/07/06 16:16:21;;;;;;;1.55;1.17;;;;;;;21.68;43.74;100631.48;3596936;76;20942;-76
2022/07/06 16:21:13;;;;;;;1.40;1.02;;;;;;;21.39;43.32;100648.17;3566011;76;20981;-76
2022/07/06 16:26:06;;;;;;;23.87;4.45;;;;;;;21.13;44.20;100637.89;3643459;76;21562;-76
2022/07/06 16:30:57;;;;;;;4.50;1.30;;;;;;;21.05;44.87;100638.55;3622623;76;20952;-76
2022/07/06 16:35:49;;;;;;;1.50;1.00;;;;;;;20.94;44.99;100638.41;3609568;76;20997;-76
2022/07/06 16:40:40;;;;;;;1.75;1.50;;;;;;;20.83;45.36;100639.14;3662538;76;20906;-75
2022/07/06 16:45:31;;;;;;;1.25;1.15;;;;;;;20.76;45.86;100640.20;3611759;77;20943;-75
2022/07/06 16:50:23;;;;;;;3.12;1.42;;;;;;;20.71;45.85;100631.10;3602084;77;21021;-75
2022/07/06 16:55:16;;;;;;;1.60;1.10;;;;;;;20.65;46.05;100638.31;3647082;76;20973;-76
2022/07/06 17:00:08;;;;;;;3.65;1.30;;;;;;;20.56;46.05;100633.63;3606906;76;21302;-75
2022/07/06 17:04:59;;;;;;;2.87;1.32;;;;;;;20.48;46.53;100627.70;3634333;76;20921;-75
2022/07/06 17:09:50;;;;;;;2.67;1.35;;;;;;;20.46;46.48;100624.23;3668857;76;20884;-75
2022/07/06 17:14:42;;;;;;;1.72;1.17;;;;;;;20.43;46.73;100628.73;3699709;76;22125;-75
2022/07/06 17:19:33;;;;;;;1.72;1.42;;;;;;;20.41;47.02;100624.80;3651589;76;21007;-75
2022/07/06 17:24:24;;;;;;;1.65;1.45;;;;;;;20.34;47.08;100626.72;3701120;76;21112;-75
2022/07/06 17:29:15;;;;;;;1.42;1.30;;;;;;;20.29;47.86;100629.06;3621623;76;21044;-75
2022/07/06 17:34:06;;;;;;;1.37;1.27;;;;;;;20.32;48.57;100630.31;3633693;76;20942;-75
2022/07/06 17:38:58;;;;;;;2.27;1.70;;;;;;;20.34;48.23;100625.86;3701122;76;22162;-75
2022/07/06 17:43:49;;;;;;;2.27;1.27;;;;;;;20.30;48.25;100630.78;3662346;77;20936;-75
2022/07/06 17:48:40;;;;;;;3.02;1.40;;;;;;;20.23;48.22;100636.69;3651483;76;21282;-75
2022/07/06 17:53:31;;;;;;;1.77;1.32;;;;;;;20.10;48.12;100638.76;3569778;78;21746;-75
2022/07/06 17:58:22;;;;;;;3.17;1.60;;;;;;;19.96;49.20;100650.95;3560129;77;20937;-75
2022/07/06 18:03:13;;;;;;;7.40;1.80;;;;;;;19.96;49.20;100650.95;3548256;78;21584;-75
2022/07/06 18:08:05;;;;;;;2.17;1.12;;;;;;;19.93;49.01;100650.15;3582277;78;22486;-75
2022/07/06 18:12:57;;;;;;;2.27;1.60;;;;;;;19.88;49.59;100646.74;3503476;78;21158;-76
2022/07/06 18:17:49;;;;;;;1.50;1.40;;;;;;;19.85;49.55;100654.72;3536737;78;20939;-78
2022/07/06 18:22:40;;;;;;;3.12;1.50;;;;;;;19.78;49.53;100649.59;3512598;79;21444;-78
2022/07/06 18:27:31;;;;;;;2.47;1.40;;;;;;;19.75;49.42;100644.84;3513194;79;20966;-78
2022/07/06 18:32:23;;;;;;;2.15;1.27;;;;;;;19.68;49.55;100649.34;3508061;79;21112;-78
2022/07/06 18:37:14;;;;;;;1.65;1.55;;;;;;;19.63;49.97;100643.29;3528053;79;22193;-78
2022/07/06 18:42:06;;;;;;;2.80;1.80;;;;;;;19.51;49.65;100651.45;3493002;80;21435;-78
2022/07/06 18:46:57;;;;;;;1.60;1.50;;;;;;;19.37;49.66;100652.62;3543716;78;22030;-78
2022/07/06 18:51:48;;;;;;;1.85;1.65;;;;;;;19.25;50.05;100650.23;3520335;79;20947;-78
2022/07/06 18:56:40;;;;;;;2.47;1.98;;;;;;;19.18;50.25;100653.89;3444403;80;20978;-78
2022/07/06 19:01:31;;;;;;;1.90;1.80;;;;;;;19.10;50.78;100654.48;3548449;79;20987;-78
2022/07/06 19:06:22;;;;;;;6.12;2.15;;;;;;;18.97;50.94;100656.02;3583726;77;21539;-77
2022/07/06 19:11:14;;;;;;;2.62;2.10;;;;;;;18.84;51.34;100657.16;3489992;80;21039;-78
2022/07/06 19:16:07;;;;;;;6.15;2.45;;;;;;;18.63;52.21;100669.76;3554946;77;20908;-78
2022/07/06 19:20:59;;;;;;;2.98;2.20;;;;;;;18.45;52.51;100683.24;3544217;78;20949;-77
2022/07/06 19:25:50;;;;;;;3.02;2.70;;;;;;;18.29;53.12;100686.10;3582165;78;21178;-78
2022/07/06 19:30:44;;;;;;;3.72;2.20;;;;;;;18.17;53.42;100691.58;3578253;77;20991;-78
2022/07/06 19:35:36;;;;;;;3.02;1.85;;;;;;;18.02;53.63;100702.31;3501142;78;20951;-78
2022/07/06 19:40:27;;;;;;;3.00;2.50;;;;;;;17.82;53.99;100699.47;3526798;77;21500;-78
2022/07/06 19:45:19;;;;;;;2.72;2.35;;;;;;;17.76;54.15;100703.51;3672050;76;21502;-77
2022/07/06 19:50:10;;;;;;;4.78;2.47;;;;;;;17.63;54.36;100707.16;3615308;77;20902;-77
2022/07/06 19:55:02;;;;;;;6.25;2.70;;;;;;;17.51;55.06;100706.44;3615368;77;21573;-77
2022/07/06 19:59:56;;;;;;;3.65;2.42;;;;;;;17.37;55.50;100705.72;3575229;76;20961;-78
2022/07/06 20:04:49;;;;;;;6.12;3.52;;;;;;;17.23;55.82;100703.69;3601848;76;21418;-78
2022/07/06 20:09:41;;;;;;;5.83;2.90;;;;;;;17.10;56.11;100702.50;3607184;76;21509;-78
2022/07/06 20:14:32;;;;;;;5.67;3.58;;;;;;;16.93;56.66;100699.16;3574435;76;20937;-77
2022/07/06 20:19:24;;;;;;;4.65;3.60;;;;;;;16.71;57.36;100705.89;3547540;76;20988;-77
2022/07/06 20:24:15;;;;;;;4.33;3.67;;;;;;;16.48;57.70;100710.45;3563599;78;21144;-77
2022/07/06 20:29:10;;;;;;;5.90;3.15;;;;;;;16.26;58.13;100711.92;3554627;76;21028;-79
2022/07/06 20:34:02;;;;;;;4.85;3.12;;;;;;;16.13;58.54;100711.55;3556161;77;20988;-77
2022/07/06 20:38:53;;;;;;;5.60;3.47;;;;;;;16.03;58.83;100711.20;3515020;77;21422;-76
2022/07/06 20:43:45;;;;;;;3.47;2.55;;;;;;;15.86;59.34;100714.75;3588413;77;20897;-76
2022/07/06 20:48:36;;;;;;;5.10;2.98;;;;;;;15.76;59.72;100707.83;3608943;77;20996;-76
2022/07/06 20:53:28;;;;;;;3.20;2.80;;;;;;;15.66;60.07;100704.33;3554095;77;21188;-76
2022/07/06 20:58:19;;;;;;;3.35;2.37;;;;;;;15.62;60.38;100712.64;3589808;75;20975;-76
2022/07/06 21:03:10;;;;;;;4.15;2.50;;;;;;;15.56;60.62;100708.75;3656746;76;22211;-76
2022/07/06 21:08:04;;;;;;;7.28;2.35;;;;;;;15.45;60.90;100706.58;3649379;76;21030;-76
2022/07/06 21:12:55;;;;;;;3.45;2.40;;;;;;;15.33;61.43;100698.79;3621454;76;20938;-76
2022/07/06 21:17:46;;;;;;;3.77;2.42;;;;;;;15.30;61.66;100699.65;3652930;75;20947;-76
2022/07/06 21:22:38;;;;;;;3.17;2.55;;;;;;;15.19;61.76;100706.22;3612737;76;20993;-76
2022/07/06 21:27:29;;;;;;;5.30;2.98;;;;;;;15.08;62.10;100700.15;3629031;76;21447;-76
2022/07/06 21:32:21;;;;;;;3.75;2.52;;;;;;;14.97;62.43;100704.09;3584396;77;20989;-76
2022/07/06 21:37:12;;;;;;;3.10;2.42;;;;;;;14.91;62.64;100704.53;3622898;77;20932;-76
2022/07/06 21:42:05;;;;;;;2.40;2.20;;;;;;;14.82;62.84;100711.50;3624916;77;21269;-76
2022/07/06 21:46:56;;;;;;;3.17;2.98;;;;;;;14.69;63.14;100726.78;3557075;76;21029;-76
2022/07/06 21:51:47;;;;;;;4.92;2.90;;;;;;;14.51;63.50;100731.55;3618649;76;20973;-76
2022/07/06 21:56:39;;;;;;;4.08;2.52;;;;;;;14.46;64.02;100727.59;3642534;76;21414;-76
2022/07/06 22:01:30;;;;;;;3.45;2.90;;;;;;;14.34;64.28;100727.58;3596501;76;20929;-76
2022/07/06 22:06:22;;;;;;;3.72;2.45;;;;;;;14.28;64.46;100724.97;3612643;75;20940;-76
2022/07/06 22:11:13;;;;;;;2.95;2.70;;;;;;;14.22;64.64;100731.51;3658454;75;20949;-76
2022/07/06 22:16:05;;;;;;;3.83;3.25;;;;;;;14.18;65.19;100729.73;3625820;76;21432;-76
2022/07/06 22:20:56;;;;;;;2.98;2.67;;;;;;;14.14;65.39;100738.00;3645242;76;20975;-76
2022/07/06 22:25:48;;;;;;;4.87;3.00;;;;;;;14.08;65.79;100736.25;3625877;76;21424;-77
2022/07/06 22:30:39;;;;;;;4.22;2.60;;;;;;;14.12;66.12;100735.82;3596177;76;21014;-76
2022/07/06 22:35:31;;;;;;;2.60;2.40;;;;;;;14.11;66.25;100737.58;3622888;75;20966;-76